METAR Data
IDs: Format: Raw Decoded Include TAF

Data at: 1208 UTC 23 Sep 2018

K5SM 231148Z AUTO 21010G17KT 10SM SCT080 05/M06 A3046 RMK AO2
K5SM 231130Z AUTO 21010G15KT 10SM BKN080 06/M06 A3046 RMK AO2
K5SM 231106Z AUTO 21009KT 10SM BKN080 05/M06 A3047 RMK AO2
K5SM 231048Z AUTO 22008G14KT 10SM SCT080 06/M06 A3047 RMK AO2
K5SM 231030Z AUTO 21009KT 10SM CLR 05/M07 A3047 RMK AO2
K5SM 231006Z AUTO 23009KT 10SM CLR 07/M07 A3048 RMK AO2
K5SM 230948Z AUTO 22008KT 10SM CLR 06/M07 A3048 RMK AO2
K5SM 230930Z AUTO 22008G14KT 10SM CLR 05/M07 A3048 RMK AO2
K5SM 230906Z AUTO 22008KT 10SM CLR 05/M08 A3048 RMK AO2
K5SM 230847Z AUTO 22009G14KT 10SM CLR 06/M08 A3048 RMK AO2
K5SM 230829Z AUTO 22008KT 10SM CLR 06/M08 A3049 RMK AO2
K5SM 230806Z AUTO 22006KT 140V240 10SM CLR 06/M08 A3049 RMK AO2
K5SM 230748Z AUTO 22007KT 10SM CLR 06/M08 A3049 RMK AO2
K5SM 230730Z AUTO 23006KT 10SM CLR 06/M09 A3050 RMK AO2
K5SM 230706Z AUTO 24006KT 10SM CLR 07/M09 A3050 RMK AO2
K5SM 230646Z AUTO 24006KT 10SM CLR 07/M09 A3050 RMK AO2
K5SM 230629Z AUTO 23006KT 10SM CLR 07/M09 A3050 RMK AO2
K5SM 230606Z AUTO 24005KT 10SM CLR 07/M09 A3051 RMK AO2
K5SM 230548Z AUTO 24006KT 10SM CLR 07/M09 A3051 RMK AO2
K5SM 230530Z AUTO 23005KT 10SM CLR 07/M08 A3051 RMK AO2
K5SM 230506Z AUTO 24004KT 10SM SCT060 SCT070 07/M08 A3052 RMK AO2
K5SM 230448Z AUTO 24006KT 10SM BKN060 BKN070 07/M07 A3052 RMK AO2
K5SM 230429Z AUTO 24005KT 10SM BKN060 BKN075 07/M07 A3052 RMK AO2
K5SM 230406Z AUTO 24005KT 10SM BKN075 07/M08 A3053 RMK AO2
K5SM 230346Z AUTO 25006KT 10SM SCT060 OVC075 07/M08 A3053 RMK AO2
K5SM 230329Z AUTO 25006KT 10SM BKN060 OVC075 07/M08 A3053 RMK AO2
K5SM 230305Z AUTO 24005KT 10SM BKN060 BKN070 07/M08 A3053 RMK AO2
K5SM 230246Z AUTO 23005KT 10SM CLR 08/M08 A3053 RMK AO2
K5SM 230229Z AUTO 24005KT 10SM CLR 08/M08 A3052 RMK AO2
K5SM 230205Z AUTO 25006KT 10SM CLR 08/M08 A3052 RMK AO2
K5SM 230148Z AUTO 25006KT 10SM CLR 08/M08 A3052 RMK AO2
K5SM 230130Z AUTO 25007KT 230V360 10SM CLR 09/M08 A3052 RMK AO2
K5SM 230106Z AUTO 26006KT 10SM CLR 10/M08 A3052 RMK AO2
K5SM 230047Z AUTO 24003KT 10SM CLR 11/M09 A3052 RMK AO2
K5SM 230029Z AUTO 24006KT 10SM CLR 12/M09 A3052 RMK AO2
K5SM 230006Z AUTO 26003G15KT 10SM CLR 12/M09 A3052 RMK AO2
K5SM 222350Z AUTO 26005G14KT 10SM CLR 13/M09 A3052 RMK AO2
K5SM 222328Z AUTO 24006KT 210V290 10SM CLR 15/M08 A3052 RMK AO2
K5SM 222306Z AUTO 23004G17KT 10SM SCT090 15/M09 A3051 RMK AO2
K5SM 222247Z AUTO 00000KT 10SM SCT090 14/M10 A3052 RMK AO2
K5SM 222229Z AUTO 31007G15KT 10SM CLR 14/M10 A3053 RMK AO2
K5SM 222207Z AUTO 30007G19KT 260V020 10SM CLR 15/M11 A3053 RMK AO2
K5SM 222149Z AUTO 27005KT 10SM CLR 15/M11 A3053 RMK AO2
K5SM 222130Z AUTO 29004G21KT 10SM CLR 15/M11 A3054 RMK AO2
K5SM 222106Z AUTO 25009G23KT 070V350 10SM CLR 15/M11 A3054 RMK AO2
K5SM 222045Z AUTO 27008G17KT 210V080 10SM CLR 16/M11 A3054 RMK AO2
K5SM 222029Z AUTO 25010G17KT 210V290 10SM CLR 16/M11 A3055 RMK AO2
K5SM 222005Z AUTO 24006G15KT 190V320 10SM CLR 15/M11 A3056 RMK AO2
K5SM 221947Z AUTO 25006G17KT 220V350 10SM CLR 15/M12 A3057 RMK AO2
K5SM 221930Z AUTO 24009G16KT 200V280 10SM CLR 16/M12 A3058 RMK AO2
K5SM 221906Z AUTO 27004KT 10SM CLR 15/M12 A3059 RMK AO2
K5SM 221847Z AUTO 26003KT 10SM CLR 15/M12 A3059 RMK AO2
K5SM 221830Z AUTO 27003KT 10SM CLR 15/M12 A3060 RMK AO2
K5SM 221805Z AUTO 26003KT 10SM CLR 15/M11 A3061 RMK AO2
K5SM 221750Z AUTO 00000KT 10SM CLR 13/M11 A3061 RMK AO2
K5SM 221726Z AUTO 25003KT 10SM CLR 14/M11 A3062 RMK AO2
K5SM 221708Z AUTO 00000KT 10SM CLR 14/M11 A3062 RMK AO2
K5SM 221646Z AUTO 25004KT 10SM CLR 12/M11 A3062 RMK AO2
K5SM 221627Z AUTO 24004G14KT 10SM CLR 12/M11 A3062 RMK AO2
K5SM 221608Z AUTO 23007KT 10SM CLR 12/M11 A3062 RMK AO2
K5SM 221547Z AUTO 24004KT 10SM CLR 11/M12 A3062 RMK AO2
K5SM 221529Z AUTO 23004KT 10SM CLR 10/M12 A3061 RMK AO2
K5SM 221506Z AUTO 21005KT 10SM CLR 08/M11 A3061 RMK AO2
K5SM 221447Z AUTO 21007KT 10SM CLR 07/M12 A3061 RMK AO2
K5SM 221429Z AUTO 22006KT 10SM CLR 07/M11 A3061 RMK AO2
K5SM 221406Z AUTO 21007KT 10SM CLR 06/M12 A3061 RMK AO2
K5SM 221347Z AUTO 21008KT 10SM CLR 06/M12 A3061 RMK AO2
K5SM 221330Z AUTO 21007KT 10SM CLR 06/M13 A3060 RMK AO2
K5SM 221306Z AUTO 23006KT 10SM CLR 05/M13 A3060 RMK AO2
K5SM 221248Z AUTO 23006KT 10SM CLR 05/M13 A3060 RMK AO2
K5SM 221230Z AUTO 24007KT 10SM CLR 05/M13 A3060 RMK AO2
K5SM 221206Z AUTO 23007KT 10SM CLR 05/M13 A3060 RMK AO2
K5SM 221147Z AUTO 23006KT 10SM CLR 05/M13 A3059 RMK AO2
K5SM 221129Z AUTO 23006KT 10SM CLR 05/M13 A3059 RMK AO2
K5SM 221106Z AUTO 22007KT 10SM CLR 05/M13 A3058 RMK AO2
K5SM 221048Z AUTO 23006KT 10SM CLR 05/M12 A3058 RMK AO2
K5SM 221030Z AUTO 23008KT 10SM CLR 05/M12 A3058 RMK AO2
K5SM 221006Z AUTO 23007KT 10SM CLR 05/M13 A3058 RMK AO2
K5SM 220948Z AUTO 23007KT 10SM CLR 05/M13 A3058 RMK AO2
K5SM 220930Z AUTO 23006KT 10SM CLR 05/M12 A3058 RMK AO2
K5SM 220906Z AUTO 22007KT 10SM CLR 05/M12 A3058 RMK AO2
K5SM 220846Z AUTO 22008KT 10SM CLR 05/M12 A3059 RMK AO2
K5SM 220829Z AUTO 22008KT 10SM CLR 05/M13 A3059 RMK AO2
K5SM 220805Z AUTO 22007KT 10SM CLR 05/M13 A3060 RMK AO2
K5SM 220748Z AUTO 22006KT 10SM CLR 06/M14 A3060 RMK AO2
K5SM 220730Z AUTO 23006KT 10SM CLR 05/M14 A3060 RMK AO2
K5SM 220706Z AUTO 23006KT 10SM CLR 05/M15 A3060 RMK AO2
K5SM 220645Z AUTO 23006KT 10SM CLR 06/M15 A3060 RMK AO2
K5SM 220629Z AUTO 24005KT 10SM CLR 07/M15 A3060 RMK AO2
K5SM 220606Z AUTO 25006KT 10SM CLR 06/M14 A3061 RMK AO2
K5SM 220547Z AUTO 25005KT 10SM CLR 06/M13 A3061 RMK AO2
K5SM 220529Z AUTO 25006KT 10SM CLR 06/M13 A3061 RMK AO2
K5SM 220506Z AUTO 25005KT 10SM CLR 07/M13 A3061 RMK AO2
K5SM 220447Z AUTO 24005KT 10SM CLR 06/M13 A3061 RMK AO2
K5SM 220429Z AUTO 24006KT 10SM CLR 06/M13 A3061 RMK AO2
K5SM 220406Z AUTO 25005KT 10SM CLR 07/M13 A3061 RMK AO2
K5SM 220348Z AUTO 24006KT 10SM CLR 07/M13 A3061 RMK AO2
K5SM 220329Z AUTO 24007KT 10SM CLR 07/M13 A3061 RMK AO2
K5SM 220306Z AUTO 25008KT 10SM CLR 07/M12 A3060 RMK AO2
K5SM 220248Z AUTO 24006KT 10SM CLR 07/M11 A3060 RMK AO2
K5SM 220230Z AUTO 24006KT 10SM CLR 08/M12 A3059 RMK AO2
K5SM 220207Z AUTO 24005KT 10SM CLR 08/M13 A3059 RMK AO2
K5SM 220146Z AUTO 25005KT 10SM CLR 09/M14 A3058 RMK AO2
K5SM 220130Z AUTO 25006KT 10SM CLR 09/M13 A3057 RMK AO2
K5SM 220106Z AUTO 25006KT 10SM CLR 11/M14 A3057 RMK AO2
K5SM 220048Z AUTO 28005KT 10SM CLR 11/M13 A3057 RMK AO2 LTG DSNT SE
K5SM 220026Z AUTO 28006G16KT 10SM CLR 12/M14 A3057 RMK AO2
K5SM 220009Z AUTO 28004KT 10SM CLR 12/M15 A3056 RMK AO2